sensor_id;sensor_type;location;lat;lon;timestamp;pressure;altitude;pressure_sealevel;temperature;humidity
15529;BME280;7866;52.280;9.500;2022-10-26T00:00:05;100431.25;;;10.81;93.17
15529;BME280;7866;52.280;9.500;2022-10-26T00:05:08;100417.03;;;10.89;93.50
15529;BME280;7866;52.280;9.500;2022-10-26T00:10:11;100425.25;;;10.95;93.64
15529;BME280;7866;52.280;9.500;2022-10-26T00:15:12;100424.72;;;11.08;93.32
15529;BME280;7866;52.280;9.500;2022-10-26T00:20:14;100422.22;;;11.06;92.76
15529;BME280;7866;52.280;9.500;2022-10-26T00:25:17;100426.88;;;11.13;93.01
15529;BME280;7866;52.280;9.500;2022-10-26T00:30:19;100419.84;;;11.12;93.31
15529;BME280;7866;52.280;9.500;2022-10-26T00:35:21;100429.56;;;11.13;93.21
15529;BME280;7866;52.280;9.500;2022-10-26T00:40:27;100422.03;;;11.08;93.56
15529;BME280;7866;52.280;9.500;2022-10-26T00:45:30;100431.75;;;11.17;93.41
15529;BME280;7866;52.280;9.500;2022-10-26T00:50:34;100428.06;;;11.18;93.14
15529;BME280;7866;52.280;9.500;2022-10-26T00:55:42;100425.38;;;11.18;93.25
15529;BME280;7866;52.280;9.500;2022-10-26T01:00:45;100431.22;;;11.22;92.86
15529;BME280;7866;52.280;9.500;2022-10-26T01:05:48;100422.47;;;11.36;93.12
15529;BME280;7866;52.280;9.500;2022-10-26T01:10:51;100424.00;;;11.30;92.99
15529;BME280;7866;52.280;9.500;2022-10-26T01:16:01;100416.47;;;11.26;92.38
15529;BME280;7866;52.280;9.500;2022-10-26T01:21:19;100410.06;;;11.35;92.78
15529;BME280;7866;52.280;9.500;2022-10-26T01:26:45;100417.13;;;11.28;92.49
15529;BME280;7866;52.280;9.500;2022-10-26T01:31:57;100403.91;;;11.26;93.34
15529;BME280;7866;52.280;9.500;2022-10-26T01:37:06;100401.06;;;11.20;93.64
15529;BME280;7866;52.280;9.500;2022-10-26T01:42:10;100386.34;;;11.16;93.39
15529;BME280;7866;52.280;9.500;2022-10-26T01:47:15;100388.69;;;11.10;93.26
15529;BME280;7866;52.280;9.500;2022-10-26T01:52:17;100377.69;;;10.97;93.93
15529;BME280;7866;52.280;9.500;2022-10-26T01:57:20;100373.31;;;10.96;93.74
15529;BME280;7866;52.280;9.500;2022-10-26T02:08:02;100378.03;;;10.94;94.24
15529;BME280;7866;52.280;9.500;2022-10-26T02:13:15;100371.28;;;11.15;94.76
15529;BME280;7866;52.280;9.500;2022-10-26T02:18:28;100371.09;;;11.08;94.46
15529;BME280;7866;52.280;9.500;2022-10-26T02:23:34;100368.44;;;11.00;93.92
15529;BME280;7866;52.280;9.500;2022-10-26T02:28:40;100355.56;;;11.03;94.15
15529;BME280;7866;52.280;9.500;2022-10-26T02:33:45;100336.13;;;11.01;93.92
15529;BME280;7866;52.280;9.500;2022-10-26T02:38:50;100340.31;;;10.96;94.07
15529;BME280;7866;52.280;9.500;2022-10-26T02:43:58;100334.47;;;10.92;94.57
15529;BME280;7866;52.280;9.500;2022-10-26T02:49:00;100332.81;;;10.91;94.62
15529;BME280;7866;52.280;9.500;2022-10-26T02:54:08;100339.81;;;10.92;94.49
15529;BME280;7866;52.280;9.500;2022-10-26T02:59:14;100337.38;;;10.66;94.38
15529;BME280;7866;52.280;9.500;2022-10-26T03:04:16;100334.22;;;10.63;94.04
15529;BME280;7866;52.280;9.500;2022-10-26T03:09:20;100323.84;;;10.51;94.55
15529;BME280;7866;52.280;9.500;2022-10-26T03:14:21;100326.19;;;10.54;94.47
15529;BME280;7866;52.280;9.500;2022-10-26T03:19:23;100327.34;;;10.60;95.07
15529;BME280;7866;52.280;9.500;2022-10-26T03:24:26;100326.66;;;10.74;95.14
15529;BME280;7866;52.280;9.500;2022-10-26T03:29:28;100325.81;;;10.74;95.08
15529;BME280;7866;52.280;9.500;2022-10-26T03:34:29;100319.97;;;10.70;95.15
15529;BME280;7866;52.280;9.500;2022-10-26T03:39:32;100315.75;;;10.76;94.90
15529;BME280;7866;52.280;9.500;2022-10-26T03:44:34;100315.44;;;10.71;95.20
15529;BME280;7866;52.280;9.500;2022-10-26T03:49:36;100300.53;;;10.68;94.73
15529;BME280;7866;52.280;9.500;2022-10-26T03:54:38;100308.44;;;10.53;94.41
15529;BME280;7866;52.280;9.500;2022-10-26T03:59:40;100314.97;;;10.43;94.21
15529;BME280;7866;52.280;9.500;2022-10-26T04:04:42;100301.09;;;10.31;94.34
15529;BME280;7866;52.280;9.500;2022-10-26T04:09:45;100305.41;;;10.24;94.88
15529;BME280;7866;52.280;9.500;2022-10-26T04:14:46;100302.78;;;10.32;94.68
15529;BME280;7866;52.280;9.500;2022-10-26T04:19:48;100301.09;;;10.31;95.12
15529;BME280;7866;52.280;9.500;2022-10-26T04:24:51;100306.78;;;10.28;95.07
15529;BME280;7866;52.280;9.500;2022-10-26T04:29:52;100307.59;;;10.36;95.75
15529;BME280;7866;52.280;9.500;2022-10-26T04:34:54;100309.97;;;10.31;95.64
15529;BME280;7866;52.280;9.500;2022-10-26T04:39:57;100309.09;;;10.23;95.87
15529;BME280;7866;52.280;9.500;2022-10-26T04:44:59;100308.78;;;10.18;95.37
15529;BME280;7866;52.280;9.500;2022-10-26T04:50:00;100300.75;;;10.09;94.80
15529;BME280;7866;52.280;9.500;2022-10-26T04:55:05;100292.38;;;10.04;95.13
15529;BME280;7866;52.280;9.500;2022-10-26T05:00:08;100301.41;;;9.95;95.03
15529;BME280;7866;52.280;9.500;2022-10-26T05:05:10;100300.06;;;9.91;95.51
15529;BME280;7866;52.280;9.500;2022-10-26T05:10:13;100312.41;;;9.84;95.46
15529;BME280;7866;52.280;9.500;2022-10-26T05:15:15;100298.41;;;9.98;95.83
15529;BME280;7866;52.280;9.500;2022-10-26T05:20:16;100295.41;;;10.18;95.82
15529;BME280;7866;52.280;9.500;2022-10-26T05:25:19;100285.22;;;10.29;95.95
15529;BME280;7866;52.280;9.500;2022-10-26T05:30:21;100278.00;;;10.38;95.69
15529;BME280;7866;52.280;9.500;2022-10-26T05:35:23;100279.34;;;10.42;94.92
15529;BME280;7866;52.280;9.500;2022-10-26T05:40:27;100284.53;;;10.35;94.66
15529;BME280;7866;52.280;9.500;2022-10-26T05:45:28;100278.03;;;10.30;95.14
15529;BME280;7866;52.280;9.500;2022-10-26T05:50:30;100285.34;;;10.20;94.83
15529;BME280;7866;52.280;9.500;2022-10-26T05:55:34;100283.00;;;10.17;94.90
15529;BME280;7866;52.280;9.500;2022-10-26T06:00:42;100283.69;;;10.19;94.99
15529;BME280;7866;52.280;9.500;2022-10-26T06:05:51;100283.84;;;10.58;95.53
15529;BME280;7866;52.280;9.500;2022-10-26T06:10:56;100289.19;;;11.14;95.93
15529;BME280;7866;52.280;9.500;2022-10-26T06:16:08;100299.53;;;11.56;94.23
15529;BME280;7866;52.280;9.500;2022-10-26T06:21:26;100291.22;;;11.74;93.40
15529;BME280;7866;52.280;9.500;2022-10-26T06:26:37;100298.34;;;11.90;93.69
15529;BME280;7866;52.280;9.500;2022-10-26T06:31:42;100302.16;;;12.18;93.49
15529;BME280;7866;52.280;9.500;2022-10-26T06:36:46;100301.44;;;12.39;92.35
15529;BME280;7866;52.280;9.500;2022-10-26T06:41:50;100302.97;;;12.56;90.88
15529;BME280;7866;52.280;9.500;2022-10-26T06:46:56;100310.69;;;12.74;89.96
15529;BME280;7866;52.280;9.500;2022-10-26T06:52:01;100311.69;;;12.88;89.66
15529;BME280;7866;52.280;9.500;2022-10-26T06:57:07;100312.28;;;12.98;89.43
15529;BME280;7866;52.280;9.500;2022-10-26T07:02:10;100317.75;;;13.05;89.19
15529;BME280;7866;52.280;9.500;2022-10-26T07:07:13;100318.66;;;13.12;87.36
15529;BME280;7866;52.280;9.500;2022-10-26T07:12:17;100322.19;;;13.27;87.31
15529;BME280;7866;52.280;9.500;2022-10-26T07:17:19;100316.00;;;13.27;87.75
15529;BME280;7866;52.280;9.500;2022-10-26T07:22:21;100326.09;;;13.40;87.64
15529;BME280;7866;52.280;9.500;2022-10-26T07:27:24;100329.13;;;13.51;86.55
15529;BME280;7866;52.280;9.500;2022-10-26T07:32:25;100330.69;;;13.61;86.51
15529;BME280;7866;52.280;9.500;2022-10-26T07:37:27;100337.75;;;13.62;86.15
15529;BME280;7866;52.280;9.500;2022-10-26T07:42:30;100345.50;;;13.71;86.16
15529;BME280;7866;52.280;9.500;2022-10-26T07:47:32;100341.81;;;13.72;85.85
15529;BME280;7866;52.280;9.500;2022-10-26T07:52:34;100353.28;;;13.81;85.70
15529;BME280;7866;52.280;9.500;2022-10-26T07:57:37;100345.69;;;13.85;85.63
15529;BME280;7866;52.280;9.500;2022-10-26T08:02:39;100349.19;;;13.85;85.69
15529;BME280;7866;52.280;9.500;2022-10-26T08:07:41;100352.16;;;13.90;85.78
15529;BME280;7866;52.280;9.500;2022-10-26T08:12:44;100352.69;;;14.00;85.18
15529;BME280;7866;52.280;9.500;2022-10-26T08:17:46;100350.50;;;14.11;85.12
15529;BME280;7866;52.280;9.500;2022-10-26T08:22:48;100356.00;;;14.24;84.72
15529;BME280;7866;52.280;9.500;2022-10-26T08:27:51;100353.25;;;14.39;83.93
15529;BME280;7866;52.280;9.500;2022-10-26T08:32:57;100343.03;;;14.56;83.35
15529;BME280;7866;52.280;9.500;2022-10-26T08:37:59;100340.72;;;14.74;82.40
15529;BME280;7866;52.280;9.500;2022-10-26T08:43:04;100345.56;;;14.85;82.06
15529;BME280;7866;52.280;9.500;2022-10-26T08:48:13;100341.72;;;15.01;81.77
15529;BME280;7866;52.280;9.500;2022-10-26T08:53:19;100332.22;;;15.12;81.10
15529;BME280;7866;52.280;9.500;2022-10-26T08:58:27;100327.31;;;15.22;80.22
15529;BME280;7866;52.280;9.500;2022-10-26T09:03:29;100330.44;;;15.25;79.90
15529;BME280;7866;52.280;9.500;2022-10-26T09:08:34;100323.56;;;15.16;80.38
15529;BME280;7866;52.280;9.500;2022-10-26T09:13:51;100329.78;;;15.17;80.80
15529;BME280;7866;52.280;9.500;2022-10-26T09:19:10;100326.81;;;15.46;80.08
15529;BME280;7866;52.280;9.500;2022-10-26T09:24:24;100331.31;;;15.81;78.78
15529;BME280;7866;52.280;9.500;2022-10-26T09:29:34;100342.63;;;16.17;77.58
15529;BME280;7866;52.280;9.500;2022-10-26T09:34:40;100341.38;;;16.20;77.08
15529;BME280;7866;52.280;9.500;2022-10-26T09:39:49;100340.97;;;16.16;77.50
15529;BME280;7866;52.280;9.500;2022-10-26T09:44:58;100339.72;;;16.25;77.24
15529;BME280;7866;52.280;9.500;2022-10-26T09:50:06;100338.88;;;16.38;76.51
15529;BME280;7866;52.280;9.500;2022-10-26T09:55:15;100343.03;;;16.47;75.71
15529;BME280;7866;52.280;9.500;2022-10-26T10:00:20;100352.22;;;16.60;75.34
15529;BME280;7866;52.280;9.500;2022-10-26T10:05:25;100341.84;;;16.77;75.36
15529;BME280;7866;52.280;9.500;2022-10-26T10:10:27;100352.03;;;16.88;74.66
15529;BME280;7866;52.280;9.500;2022-10-26T10:15:31;100348.44;;;17.14;74.73
15529;BME280;7866;52.280;9.500;2022-10-26T10:20:33;100359.66;;;17.11;73.92
15529;BME280;7866;52.280;9.500;2022-10-26T10:25:36;100369.22;;;17.27;73.60
15529;BME280;7866;52.280;9.500;2022-10-26T10:30:51;100359.63;;;17.31;73.84
15529;BME280;7866;52.280;9.500;2022-10-26T10:35:52;100359.59;;;17.37;73.78
15529;BME280;7866;52.280;9.500;2022-10-26T10:40:57;100365.44;;;17.34;74.25
15529;BME280;7866;52.280;9.500;2022-10-26T10:46:00;100362.91;;;17.39;74.33
15529;BME280;7866;52.280;9.500;2022-10-26T10:51:05;100369.59;;;17.37;74.34
15529;BME280;7866;52.280;9.500;2022-10-26T10:56:36;100375.44;;;17.27;74.12
15529;BME280;7866;52.280;9.500;2022-10-26T11:01:47;100371.72;;;17.28;73.88
15529;BME280;7866;52.280;9.500;2022-10-26T11:06:50;100367.75;;;17.31;73.99
15529;BME280;7866;52.280;9.500;2022-10-26T11:11:57;100384.56;;;17.39;72.62
15529;BME280;7866;52.280;9.500;2022-10-26T11:17:08;100378.66;;;17.69;72.85
15529;BME280;7866;52.280;9.500;2022-10-26T11:22:29;100380.31;;;17.70;72.14
15529;BME280;7866;52.280;9.500;2022-10-26T11:27:38;100384.47;;;17.79;72.56
15529;BME280;7866;52.280;9.500;2022-10-26T11:32:46;100396.81;;;18.45;70.98
15529;BME280;7866;52.280;9.500;2022-10-26T11:37:54;100383.91;;;18.97;68.30
15529;BME280;7866;52.280;9.500;2022-10-26T11:43:05;100391.06;;;19.10;68.36
15529;BME280;7866;52.280;9.500;2022-10-26T11:48:16;100403.47;;;19.24;68.08
15529;BME280;7866;52.280;9.500;2022-10-26T11:53:23;100395.19;;;19.37;67.53
15529;BME280;7866;52.280;9.500;2022-10-26T11:58:27;100399.69;;;19.25;67.90
15529;BME280;7866;52.280;9.500;2022-10-26T12:03:32;100406.72;;;19.33;68.37
15529;BME280;7866;52.280;9.500;2022-10-26T12:08:40;100411.00;;;19.22;68.57
15529;BME280;7866;52.280;9.500;2022-10-26T12:13:47;100408.59;;;19.14;66.96
15529;BME280;7866;52.280;9.500;2022-10-26T12:18:53;100403.69;;;19.23;68.60
15529;BME280;7866;52.280;9.500;2022-10-26T12:24:00;100414.13;;;19.44;67.93
15529;BME280;7866;52.280;9.500;2022-10-26T12:29:32;100412.53;;;19.55;66.51
15529;BME280;7866;52.280;9.500;2022-10-26T12:40:41;100417.66;;;19.26;68.23
15529;BME280;7866;52.280;9.500;2022-10-26T12:45:46;100411.91;;;19.16;69.87
15529;BME280;7866;52.280;9.500;2022-10-26T12:51:40;100415.69;;;19.33;68.92
15529;BME280;7866;52.280;9.500;2022-10-26T12:56:49;100406.66;;;19.39;69.11
15529;BME280;7866;52.280;9.500;2022-10-26T13:02:02;100409.34;;;19.21;69.04
15529;BME280;7866;52.280;9.500;2022-10-26T13:07:21;100412.50;;;19.00;68.57
15529;BME280;7866;52.280;9.500;2022-10-26T13:12:25;100411.44;;;19.01;70.19
15529;BME280;7866;52.280;9.500;2022-10-26T13:17:30;100412.66;;;19.05;70.50
15529;BME280;7866;52.280;9.500;2022-10-26T13:22:43;100416.19;;;18.80;68.97
15529;BME280;7866;52.280;9.500;2022-10-26T13:27:58;100412.59;;;18.86;69.39
15529;BME280;7866;52.280;9.500;2022-10-26T13:33:01;100410.22;;;18.65;70.21
15529;BME280;7866;52.280;9.500;2022-10-26T13:38:08;100402.38;;;18.57;70.42
15529;BME280;7866;52.280;9.500;2022-10-26T13:43:15;100410.28;;;18.58;69.96
15529;BME280;7866;52.280;9.500;2022-10-26T13:48:25;100410.78;;;18.49;70.10
15529;BME280;7866;52.280;9.500;2022-10-26T13:53:36;100421.38;;;18.50;70.09
15529;BME280;7866;52.280;9.500;2022-10-26T13:58:44;100424.94;;;18.51;70.99
15529;BME280;7866;52.280;9.500;2022-10-26T14:03:50;100425.66;;;18.71;69.70
15529;BME280;7866;52.280;9.500;2022-10-26T14:08:53;100439.91;;;18.91;69.35
15529;BME280;7866;52.280;9.500;2022-10-26T14:13:58;100442.97;;;18.70;69.62
15529;BME280;7866;52.280;9.500;2022-10-26T14:19:02;100444.88;;;18.63;70.28
15529;BME280;7866;52.280;9.500;2022-10-26T14:24:04;100453.19;;;18.36;71.15
15529;BME280;7866;52.280;9.500;2022-10-26T14:29:16;100467.25;;;18.20;71.99
15529;BME280;7866;52.280;9.500;2022-10-26T14:34:18;100473.13;;;18.10;72.33
15529;BME280;7866;52.280;9.500;2022-10-26T14:39:27;100480.69;;;17.95;72.66
15529;BME280;7866;52.280;9.500;2022-10-26T14:44:31;100484.09;;;17.84;73.18
15529;BME280;7866;52.280;9.500;2022-10-26T14:49:37;100488.69;;;17.77;73.61
15529;BME280;7866;52.280;9.500;2022-10-26T14:54:55;100499.50;;;17.63;74.13
15529;BME280;7866;52.280;9.500;2022-10-26T15:00:09;100505.13;;;17.62;74.23
15529;BME280;7866;52.280;9.500;2022-10-26T15:05:18;100512.88;;;17.52;74.64
15529;BME280;7866;52.280;9.500;2022-10-26T15:10:45;100509.75;;;17.41;75.31
15529;BME280;7866;52.280;9.500;2022-10-26T15:15:49;100516.63;;;17.31;75.95
15529;BME280;7866;52.280;9.500;2022-10-26T15:20:52;100514.75;;;17.05;76.72
15529;BME280;7866;52.280;9.500;2022-10-26T15:25:56;100514.56;;;16.99;77.35
15529;BME280;7866;52.280;9.500;2022-10-26T15:31:04;100517.69;;;16.96;77.41
15529;BME280;7866;52.280;9.500;2022-10-26T15:36:12;100510.38;;;16.90;77.70
15529;BME280;7866;52.280;9.500;2022-10-26T15:41:16;100524.75;;;16.97;77.30
15529;BME280;7866;52.280;9.500;2022-10-26T15:46:21;100529.50;;;16.95;77.09
15529;BME280;7866;52.280;9.500;2022-10-26T15:51:23;100533.28;;;16.88;77.23
15529;BME280;7866;52.280;9.500;2022-10-26T15:56:25;100527.84;;;16.81;77.67
15529;BME280;7866;52.280;9.500;2022-10-26T16:01:28;100542.19;;;16.82;77.36
15529;BME280;7866;52.280;9.500;2022-10-26T16:06:32;100536.72;;;16.68;78.06
15529;BME280;7866;52.280;9.500;2022-10-26T16:11:34;100538.59;;;16.61;78.37
15529;BME280;7866;52.280;9.500;2022-10-26T16:16:37;100553.00;;;16.27;79.44
15529;BME280;7866;52.280;9.500;2022-10-26T16:21:40;100556.69;;;16.13;80.60
15529;BME280;7866;52.280;9.500;2022-10-26T16:26:42;100565.50;;;16.35;80.14
15529;BME280;7866;52.280;9.500;2022-10-26T16:31:45;100571.16;;;16.40;79.82
15529;BME280;7866;52.280;9.500;2022-10-26T16:36:47;100572.75;;;16.27;79.67
15529;BME280;7866;52.280;9.500;2022-10-26T16:41:49;100580.41;;;15.83;81.10
15529;BME280;7866;52.280;9.500;2022-10-26T16:46:53;100585.78;;;15.55;82.89
15529;BME280;7866;52.280;9.500;2022-10-26T16:51:54;100595.50;;;15.49;83.59
15529;BME280;7866;52.280;9.500;2022-10-26T16:56:56;100599.03;;;15.49;83.84
15529;BME280;7866;52.280;9.500;2022-10-26T17:01:59;100600.75;;;15.57;83.83
15529;BME280;7866;52.280;9.500;2022-10-26T17:07:01;100603.78;;;15.69;84.04
15529;BME280;7866;52.280;9.500;2022-10-26T17:12:03;100606.63;;;15.89;82.94
15529;BME280;7866;52.280;9.500;2022-10-26T17:17:06;100619.31;;;15.88;82.37
15529;BME280;7866;52.280;9.500;2022-10-26T17:22:08;100631.97;;;16.16;81.84
15529;BME280;7866;52.280;9.500;2022-10-26T17:27:10;100643.00;;;16.21;81.28
15529;BME280;7866;52.280;9.500;2022-10-26T17:32:14;100634.50;;;16.24;81.18
15529;BME280;7866;52.280;9.500;2022-10-26T17:37:15;100654.44;;;16.23;81.22
15529;BME280;7866;52.280;9.500;2022-10-26T17:42:17;100658.66;;;16.32;81.25
15529;BME280;7866;52.280;9.500;2022-10-26T17:47:20;100668.22;;;16.35;81.74
15529;BME280;7866;52.280;9.500;2022-10-26T17:52:22;100670.84;;;16.21;81.60
15529;BME280;7866;52.280;9.500;2022-10-26T17:57:24;100686.59;;;16.46;81.15
15529;BME280;7866;52.280;9.500;2022-10-26T18:02:27;100694.31;;;16.49;81.05
15529;BME280;7866;52.280;9.500;2022-10-26T18:07:29;100709.88;;;16.47;81.23
15529;BME280;7866;52.280;9.500;2022-10-26T18:12:30;100709.88;;;16.40;81.69
15529;BME280;7866;52.280;9.500;2022-10-26T18:17:34;100719.19;;;16.38;81.36
15529;BME280;7866;52.280;9.500;2022-10-26T18:22:35;100726.91;;;16.41;81.58
15529;BME280;7866;52.280;9.500;2022-10-26T18:27:37;100730.59;;;16.33;82.02
15529;BME280;7866;52.280;9.500;2022-10-26T18:32:40;100756.06;;;16.45;81.92
15529;BME280;7866;52.280;9.500;2022-10-26T18:37:42;100763.22;;;16.32;81.37
15529;BME280;7866;52.280;9.500;2022-10-26T18:42:44;100764.22;;;16.24;82.53
15529;BME280;7866;52.280;9.500;2022-10-26T18:47:46;100775.28;;;16.08;83.01
15529;BME280;7866;52.280;9.500;2022-10-26T18:52:48;100786.88;;;16.01;83.96
15529;BME280;7866;52.280;9.500;2022-10-26T18:57:50;100779.41;;;16.04;83.76
15529;BME280;7866;52.280;9.500;2022-10-26T19:02:53;100787.13;;;16.07;83.77
15529;BME280;7866;52.280;9.500;2022-10-26T19:07:55;100799.44;;;16.09;84.03
15529;BME280;7866;52.280;9.500;2022-10-26T19:12:56;100808.94;;;15.84;84.56
15529;BME280;7866;52.280;9.500;2022-10-26T19:18:01;100810.91;;;15.75;85.06
15529;BME280;7866;52.280;9.500;2022-10-26T19:23:03;100809.34;;;15.81;85.19
15529;BME280;7866;52.280;9.500;2022-10-26T19:28:04;100818.56;;;15.71;85.57
15529;BME280;7866;52.280;9.500;2022-10-26T19:33:08;100814.91;;;15.79;85.18
15529;BME280;7866;52.280;9.500;2022-10-26T19:38:09;100825.25;;;15.75;84.95
15529;BME280;7866;52.280;9.500;2022-10-26T19:43:11;100828.38;;;15.72;85.59
15529;BME280;7866;52.280;9.500;2022-10-26T19:48:15;100840.50;;;15.83;85.33
15529;BME280;7866;52.280;9.500;2022-10-26T19:53:16;100857.50;;;15.98;84.60
15529;BME280;7866;52.280;9.500;2022-10-26T19:58:18;100858.91;;;15.94;83.47
15529;BME280;7866;52.280;9.500;2022-10-26T20:03:21;100867.84;;;15.73;84.41
15529;BME280;7866;52.280;9.500;2022-10-26T20:08:24;100870.84;;;15.49;85.39
15529;BME280;7866;52.280;9.500;2022-10-26T20:13:25;100874.66;;;15.69;85.86
15529;BME280;7866;52.280;9.500;2022-10-26T20:18:28;100872.31;;;15.51;85.51
15529;BME280;7866;52.280;9.500;2022-10-26T20:23:30;100874.66;;;15.25;86.36
15529;BME280;7866;52.280;9.500;2022-10-26T20:28:32;100883.09;;;15.51;86.30
15529;BME280;7866;52.280;9.500;2022-10-26T20:33:35;100894.75;;;15.67;85.54
15529;BME280;7866;52.280;9.500;2022-10-26T20:38:38;100905.44;;;15.75;85.06
15529;BME280;7866;52.280;9.500;2022-10-26T20:43:41;100907.66;;;15.86;84.59
15529;BME280;7866;52.280;9.500;2022-10-26T20:48:44;100905.31;;;15.98;84.02
15529;BME280;7866;52.280;9.500;2022-10-26T20:53:49;100910.25;;;15.94;83.89
15529;BME280;7866;52.280;9.500;2022-10-26T20:58:53;100913.44;;;15.83;83.96
15529;BME280;7866;52.280;9.500;2022-10-26T21:03:59;100910.00;;;15.89;84.28
15529;BME280;7866;52.280;9.500;2022-10-26T21:09:00;100906.09;;;15.92;83.84
15529;BME280;7866;52.280;9.500;2022-10-26T21:14:02;100907.59;;;16.16;83.38
15529;BME280;7866;52.280;9.500;2022-10-26T21:19:07;100910.66;;;16.13;82.94
15529;BME280;7866;52.280;9.500;2022-10-26T21:24:08;100915.94;;;16.21;83.02
15529;BME280;7866;52.280;9.500;2022-10-26T21:29:10;100925.34;;;16.25;83.14
15529;BME280;7866;52.280;9.500;2022-10-26T21:34:13;100937.69;;;16.34;82.47
15529;BME280;7866;52.280;9.500;2022-10-26T21:39:15;100935.78;;;16.28;82.65
15529;BME280;7866;52.280;9.500;2022-10-26T21:44:16;100931.47;;;16.34;82.33
15529;BME280;7866;52.280;9.500;2022-10-26T21:49:20;100943.22;;;16.26;82.81
15529;BME280;7866;52.280;9.500;2022-10-26T21:54:21;100938.16;;;16.16;82.98
15529;BME280;7866;52.280;9.500;2022-10-26T21:59:23;100950.66;;;16.02;83.49
15529;BME280;7866;52.280;9.500;2022-10-26T22:04:26;100949.38;;;15.98;84.08
15529;BME280;7866;52.280;9.500;2022-10-26T22:09:28;100958.63;;;15.89;84.28
15529;BME280;7866;52.280;9.500;2022-10-26T22:14:29;100952.66;;;16.15;83.64
15529;BME280;7866;52.280;9.500;2022-10-26T22:19:32;100961.47;;;16.02;83.80
15529;BME280;7866;52.280;9.500;2022-10-26T22:24:34;100955.13;;;15.95;83.70
15529;BME280;7866;52.280;9.500;2022-10-26T22:29:36;100961.84;;;15.99;83.80
15529;BME280;7866;52.280;9.500;2022-10-26T22:34:39;100965.66;;;16.05;83.20
15529;BME280;7866;52.280;9.500;2022-10-26T22:39:40;100973.03;;;15.96;83.63
15529;BME280;7866;52.280;9.500;2022-10-26T22:44:42;100971.09;;;15.90;83.50
15529;BME280;7866;52.280;9.500;2022-10-26T22:49:45;100978.34;;;16.05;83.55
15529;BME280;7866;52.280;9.500;2022-10-26T22:54:47;100980.75;;;15.99;83.62
15529;BME280;7866;52.280;9.500;2022-10-26T22:59:49;100980.75;;;15.99;83.37
15529;BME280;7866;52.280;9.500;2022-10-26T23:04:52;100991.03;;;15.89;83.67
15529;BME280;7866;52.280;9.500;2022-10-26T23:09:53;100986.81;;;15.87;83.64
15529;BME280;7866;52.280;9.500;2022-10-26T23:14:55;100991.22;;;15.73;84.22
15529;BME280;7866;52.280;9.500;2022-10-26T23:19:58;101000.91;;;15.67;84.59
15529;BME280;7866;52.280;9.500;2022-10-26T23:25:00;100995.38;;;15.61;84.51
15529;BME280;7866;52.280;9.500;2022-10-26T23:30:01;101000.47;;;15.56;85.17
15529;BME280;7866;52.280;9.500;2022-10-26T23:35:05;101007.84;;;15.62;84.86
15529;BME280;7866;52.280;9.500;2022-10-26T23:40:08;101016.69;;;15.56;85.00
15529;BME280;7866;52.280;9.500;2022-10-26T23:45:10;101019.19;;;15.42;85.58
15529;BME280;7866;52.280;9.500;2022-10-26T23:50:13;101012.41;;;15.46;85.88
15529;BME280;7866;52.280;9.500;2022-10-26T23:55:15;101024.94;;;15.39;85.32
